Time;durP1;ratioP1;P1;durP2;ratioP2;P2;SDS_P1;SDS_P2;PMS_P1;PMS_P2;Temp;Humidity;BMP_temperature;BMP_pressure;BME280_temperature;BME280_humidity;BME280_pressure;Samples;Min_cycle;Max_cycle;Signal;HPM_P1;HPM_P2
2022/04/04 08:01:11;;;;;;;25.13;12.20;;;;;;;2.21;62.19;100191.00;5008085;28;20111;-82
2022/04/04 08:03:45;;;;;;;24.73;13.15;;;;;;;2.28;62.07;100189.78;5023116;28;20071;-82
2022/04/04 08:06:12;;;;;;;25.88;13.05;;;;;;;2.33;62.55;100178.16;5012062;28;20044;-83
2022/04/04 08:08:40;;;;;;;27.42;13.05;;;;;;;2.35;62.09;100172.84;5053242;28;20473;-81
2022/04/04 08:11:09;;;;;;;24.80;12.48;;;;;;;2.43;62.53;100175.09;5029552;28;20037;-81
2022/04/04 08:13:42;;;;;;;20.88;10.23;;;;;;;2.45;62.09;100173.25;5042975;28;20166;-82
2022/04/04 08:16:09;;;;;;;18.80;10.07;;;;;;;2.45;62.33;100168.84;5035827;28;20484;-82
2022/04/04 08:18:36;;;;;;;21.15;9.35;;;;;;;2.55;61.71;100164.00;5040932;28;20123;-81
2022/04/04 08:21:03;;;;;;;18.20;9.88;;;;;;;2.54;62.02;100152.63;5017151;28;20052;-81
2022/04/04 08:23:31;;;;;;;17.90;9.30;;;;;;;2.61;62.13;100146.16;5041292;28;20045;-81
2022/04/04 08:25:59;;;;;;;15.32;7.90;;;;;;;2.63;62.25;100143.47;5047718;28;20040;-81
2022/04/04 08:28:28;;;;;;;12.43;7.10;;;;;;;2.65;61.68;100140.78;5039538;28;20510;-81
2022/04/04 08:30:57;;;;;;;12.82;7.00;;;;;;;2.70;60.86;100120.44;5037542;28;20054;-81
2022/04/04 08:33:24;;;;;;;13.63;6.03;;;;;;;2.71;60.41;100127.34;5040323;28;20040;-81
2022/04/04 08:35:53;;;;;;;12.85;6.50;;;;;;;2.76;60.38;100134.06;5026232;28;20047;-81
2022/04/04 08:38:20;;;;;;;10.60;5.47;;;;;;;2.81;59.65;100132.03;5030486;28;20128;-81
2022/04/04 08:40:49;;;;;;;12.25;5.97;;;;;;;2.85;59.34;100126.63;5042175;28;20045;-81
2022/04/04 08:43:18;;;;;;;12.65;6.85;;;;;;;2.85;59.57;100130.13;5029704;28;21771;-81
2022/04/04 08:45:48;;;;;;;13.25;6.25;;;;;;;2.89;59.01;100125.56;5025234;28;20441;-81
2022/04/04 08:48:17;;;;;;;10.38;5.63;;;;;;;3.03;58.67;100123.91;5042574;28;20040;-81
2022/04/04 08:50:44;;;;;;;11.02;6.75;;;;;;;2.98;58.81;100118.06;5040834;28;20045;-81
2022/04/04 08:53:10;;;;;;;11.55;5.57;;;;;;;3.08;58.63;100113.19;5028804;28;20044;-80
2022/04/04 08:55:38;;;;;;;9.85;6.15;;;;;;;3.14;58.35;100109.38;5039317;28;20326;-81
2022/04/04 08:58:05;;;;;;;9.73;6.22;;;;;;;3.17;57.83;100096.94;5047172;28;20072;-81
2022/04/04 09:00:33;;;;;;;10.35;6.22;;;;;;;3.19;57.76;100087.22;5029695;28;20048;-81
2022/04/04 09:03:02;;;;;;;12.10;6.03;;;;;;;3.18;57.44;100090.78;5040582;28;20131;-81
2022/04/04 09:05:49;;;;;;;9.85;6.07;;;;;;;3.28;56.42;100087.63;5047283;28;20114;-82
2022/04/04 09:08:23;;;;;;;13.15;6.38;;;;;;;3.22;55.98;100083.56;4993206;28;20052;-81
2022/04/04 09:10:54;;;;;;;9.88;6.07;;;;;;;3.19;56.48;100081.97;5043918;28;20051;-82
2022/04/04 09:13:23;;;;;;;9.45;5.80;;;;;;;3.21;56.39;100080.09;4986258;28;20075;-89
2022/04/04 09:15:59;;;;;;;11.90;6.15;;;;;;;3.26;55.93;100074.63;5037561;28;20561;-87
2022/04/04 09:18:36;;;;;;;16.85;6.72;;;;;;;3.36;55.44;100070.56;5042266;28;20140;-88
2022/04/04 09:21:04;;;;;;;11.55;6.47;;;;;;;3.36;55.62;100057.44;5040206;28;20064;-87
2022/04/04 09:23:35;;;;;;;10.30;6.57;;;;;;;3.35;54.99;100054.88;5031427;28;20082;-83
2022/04/04 09:26:05;;;;;;;10.25;5.45;;;;;;;3.37;55.76;100050.41;4999547;28;20069;-78
2022/04/04 09:28:32;;;;;;;9.18;5.55;;;;;;;3.43;55.77;100043.00;5009061;28;20533;-87
2022/04/04 09:31:07;;;;;;;9.38;6.03;;;;;;;3.40;54.35;100031.84;5028319;28;20495;-88
2022/04/04 09:33:38;;;;;;;10.20;6.40;;;;;;;3.55;54.97;100035.41;4997956;28;20049;-85
2022/04/04 09:36:06;;;;;;;10.63;6.35;;;;;;;3.57;54.97;100025.66;5039025;28;20049;-87
2022/04/04 09:38:34;;;;;;;17.33;6.38;;;;;;;3.54;54.99;100024.06;5032897;28;20055;-87
2022/04/04 09:41:28;;;;;;;9.57;5.68;;;;;;;3.44;54.52;100023.72;5025146;28;20390;-87
2022/04/04 09:43:58;;;;;;;10.85;5.75;;;;;;;3.57;53.91;100021.25;4988087;28;20048;-87
2022/04/04 09:46:34;;;;;;;11.48;6.95;;;;;;;3.54;53.09;100012.72;5026204;28;20883;-88
2022/04/04 09:49:00;;;;;;;9.10;5.70;;;;;;;3.57;54.41;100008.13;5000367;28;20544;-88
2022/04/04 09:51:54;;;;;;;9.77;5.57;;;;;;;3.49;53.72;100010.34;5044919;28;20040;-86
2022/04/04 09:54:28;;;;;;;11.32;6.32;;;;;;;3.57;54.04;100004.66;4974623;28;20064;-88
2022/04/04 09:57:11;;;;;;;12.70;6.28;;;;;;;3.54;53.51;100007.47;5024931;28;20068;-88
2022/04/04 09:59:39;;;;;;;11.05;6.60;;;;;;;3.65;54.06;99994.56;5027129;28;20044;-85
2022/04/04 10:02:06;;;;;;;11.18;6.20;;;;;;;3.67;53.85;99990.91;5024371;28;20144;-90
2022/04/04 10:04:42;;;;;;;9.20;5.68;;;;;;;3.68;53.67;99992.59;5009549;28;20741;-88
2022/04/04 10:07:10;;;;;;;9.32;6.32;;;;;;;3.77;53.42;99991.22;5017856;28;20048;-85
2022/04/04 10:09:37;;;;;;;10.48;6.38;;;;;;;3.72;54.09;99974.06;5025309;28;20068;-85
2022/04/04 10:12:05;;;;;;;10.25;6.55;;;;;;;3.73;53.76;99981.00;5028217;28;20514;-85
2022/04/04 10:14:35;;;;;;;9.57;5.70;;;;;;;3.74;53.79;99959.03;5042861;28;20048;-81
2022/04/04 10:17:03;;;;;;;12.75;6.50;;;;;;;3.81;53.29;99976.13;5055385;28;20048;-82
2022/04/04 10:19:32;;;;;;;9.05;5.75;;;;;;;3.89;53.16;99955.50;4987386;28;20044;-82
2022/04/04 10:21:59;;;;;;;8.80;5.32;;;;;;;3.83;53.25;99955.88;5052823;28;20723;-82
2022/04/04 10:24:26;;;;;;;10.40;6.15;;;;;;;3.84;53.33;99960.19;5033850;28;20140;-83
2022/04/04 10:26:53;;;;;;;12.30;6.32;;;;;;;3.88;53.60;99954.66;5046438;28;20037;-82
2022/04/04 10:29:22;;;;;;;9.75;7.00;;;;;;;3.89;53.36;99951.13;5051471;28;20059;-82
2022/04/04 10:31:55;;;;;;;10.70;7.57;;;;;;;3.88;52.62;99940.69;5051244;28;20036;-82
2022/04/04 10:34:24;;;;;;;10.20;6.30;;;;;;;3.91;53.22;99933.47;5000255;28;20138;-82
2022/04/04 10:37:02;;;;;;;9.00;6.70;;;;;;;3.87;52.57;99934.59;5041740;28;20098;-82
2022/04/04 10:39:41;;;;;;;8.57;5.65;;;;;;;3.89;52.39;99926.59;5027641;28;20041;-81
2022/04/04 10:42:37;;;;;;;9.68;6.32;;;;;;;3.92;52.07;99919.41;5042171;28;20904;-79
2022/04/04 10:45:08;;;;;;;9.30;5.43;;;;;;;3.91;52.19;99920.31;4993718;28;20127;-81
2022/04/04 10:47:42;;;;;;;9.30;5.80;;;;;;;3.99;52.03;99911.16;5054375;28;20143;-81
2022/04/04 10:50:20;;;;;;;8.52;5.53;;;;;;;3.92;51.52;99903.66;5024557;28;20041;-81
2022/04/04 10:52:47;;;;;;;11.00;6.32;;;;;;;4.00;52.77;99895.31;5008672;28;20488;-82
2022/04/04 10:55:41;;;;;;;9.75;5.68;;;;;;;4.00;52.67;99890.03;5034649;28;20210;-82
2022/04/04 10:58:14;;;;;;;8.93;5.80;;;;;;;4.12;53.17;99878.78;4993648;28;20045;-81
2022/04/04 11:00:58;;;;;;;11.10;6.38;;;;;;;4.13;52.46;99875.22;5040387;28;20369;-83
2022/04/04 11:03:36;;;;;;;8.50;5.70;;;;;;;4.12;51.82;99880.56;4976654;28;20044;-83
2022/04/04 11:09:15;;;;;;;8.35;5.38;;;;;;;4.10;52.38;99864.06;5008548;28;20051;-83
2022/04/04 11:11:47;;;;;;;8.27;6.22;;;;;;;4.21;52.09;99858.97;4989862;28;20137;-83
2022/04/04 11:14:26;;;;;;;8.50;5.03;;;;;;;4.18;52.07;99861.81;5007686;28;20135;-84
2022/04/04 11:17:08;;;;;;;7.72;4.35;;;;;;;4.16;51.69;99858.41;5046906;28;20089;-85
2022/04/04 11:19:53;;;;;;;13.05;6.05;;;;;;;4.21;50.19;99842.38;5017812;28;20118;-86
2022/04/04 11:22:29;;;;;;;8.68;5.57;;;;;;;4.20;50.54;99843.28;4974817;28;20510;-85
2022/04/04 11:25:06;;;;;;;6.50;5.00;;;;;;;4.14;50.72;99839.25;5023105;28;20074;-86
2022/04/04 11:27:35;;;;;;;8.52;5.82;;;;;;;4.16;51.32;99836.56;5019872;28;20047;-86
2022/04/04 11:30:13;;;;;;;10.68;6.22;;;;;;;4.10;50.74;99825.47;5025548;28;20127;-86
2022/04/04 11:32:47;;;;;;;10.98;5.60;;;;;;;4.19;51.43;99815.34;5052881;28;20068;-85
2022/04/04 11:35:25;;;;;;;9.73;6.75;;;;;;;4.33;50.44;99818.78;5046479;28;20119;-86
2022/04/04 11:38:12;;;;;;;11.93;6.78;;;;;;;4.28;50.51;99817.41;5017867;28;20080;-87
2022/04/04 11:40:47;;;;;;;12.02;6.97;;;;;;;4.28;50.70;99812.13;5010234;28;20048;-84
2022/04/04 11:43:16;;;;;;;9.75;6.95;;;;;;;4.26;50.98;99800.88;5006512;28;20040;-85
2022/04/04 11:45:43;;;;;;;10.93;6.53;;;;;;;4.28;51.24;99799.00;5036613;28;20403;-85
2022/04/04 11:48:23;;;;;;;12.38;6.50;;;;;;;4.26;50.70;99811.38;5035918;28;20075;-84
2022/04/04 11:50:58;;;;;;;11.32;7.13;;;;;;;4.33;50.08;99792.50;5006273;28;20125;-80
2022/04/04 11:53:27;;;;;;;11.45;6.78;;;;;;;4.44;50.43;99802.34;4990538;28;20068;-80
2022/04/04 11:56:02;;;;;;;12.25;7.40;;;;;;;4.54;49.80;99789.44;5048531;28;20044;-80
2022/04/04 11:58:31;;;;;;;13.60;6.20;;;;;;;4.54;50.44;99778.94;4988642;28;20077;-79
2022/04/04 12:01:04;;;;;;;10.95;6.80;;;;;;;4.53;50.68;99775.47;5014190;28;20083;-80
2022/04/04 12:03:32;;;;;;;10.15;6.53;;;;;;;4.56;50.56;99766.53;5037085;28;20041;-79
2022/04/04 12:06:06;;;;;;;10.70;6.13;;;;;;;4.56;50.59;99756.84;5065115;28;20068;-80
2022/04/04 12:08:42;;;;;;;9.23;5.78;;;;;;;4.60;50.89;99751.38;5035699;28;20086;-79
2022/04/04 12:11:10;;;;;;;9.60;6.85;;;;;;;4.64;50.42;99743.19;4996161;28;20040;-79
2022/04/04 12:13:53;;;;;;;10.45;6.25;;;;;;;4.59;49.79;99747.06;5022035;28;20037;-83
2022/04/04 12:16:21;;;;;;;13.55;7.13;;;;;;;4.64;51.06;99740.56;5034173;28;20041;-83
2022/04/04 12:18:57;;;;;;;11.63;6.95;;;;;;;4.68;50.66;99730.69;5038669;28;20045;-83
2022/04/04 12:21:24;;;;;;;10.45;6.82;;;;;;;4.78;51.04;99730.00;5031617;28;20174;-79
2022/04/04 12:26:38;;;;;;;11.35;7.25;;;;;;;4.88;50.85;99717.03;4955344;28;20053;-81
2022/04/04 12:29:12;;;;;;;11.57;7.43;;;;;;;4.87;50.38;99727.69;5018318;28;20041;-79
2022/04/04 12:31:53;;;;;;;12.55;7.47;;;;;;;4.92;50.76;99717.72;5004661;28;20114;-79
2022/04/04 12:34:22;;;;;;;13.63;7.68;;;;;;;5.03;50.70;99703.81;4997053;28;20048;-79
2022/04/04 12:36:48;;;;;;;11.18;7.20;;;;;;;5.01;51.23;99701.28;5025209;28;20116;-79
2022/04/04 12:39:16;;;;;;;16.15;7.43;;;;;;;5.06;51.29;99708.88;5026353;28;20047;-79
2022/04/04 12:41:46;;;;;;;13.18;7.45;;;;;;;5.10;51.08;99686.66;5025102;28;20819;-79
2022/04/04 12:44:19;;;;;;;16.73;8.75;;;;;;;5.12;51.03;99676.88;5032513;28;20885;-79
2022/04/04 12:46:46;;;;;;;16.00;10.25;;;;;;;5.18;53.43;99681.72;4991047;28;20372;-79
2022/04/04 12:49:17;;;;;;;11.90;7.80;;;;;;;5.27;51.44;99670.56;5024374;28;20078;-80
2022/04/04 12:51:56;;;;;;;11.85;7.80;;;;;;;5.25;50.88;99667.19;5007724;28;20048;-79
2022/04/04 12:54:28;;;;;;;14.07;7.50;;;;;;;5.24;51.13;99673.41;5013821;28;20033;-79
2022/04/04 12:56:55;;;;;;;10.93;8.05;;;;;;;5.32;51.66;99665.00;5034864;28;20064;-79
2022/04/04 12:59:25;;;;;;;10.57;7.50;;;;;;;5.38;51.19;99656.66;5036261;28;20048;-80
2022/04/04 13:02:09;;;;;;;9.18;7.43;;;;;;;5.37;50.91;99653.19;5033732;28;20396;-83
2022/04/04 13:04:38;;;;;;;13.98;8.68;;;;;;;5.50;50.43;99637.38;5051887;28;20185;-79
2022/04/04 13:07:19;;;;;;;;;;;;;;;5.31;50.65;99640.44;5050237;28;20040;-79
2022/04/04 13:09:51;;;;;;;12.35;8.20;;;;;;;5.50;50.13;99647.91;5032668;28;19921;-81
2022/04/04 13:12:30;;;;;;;11.30;8.13;;;;;;;5.44;50.56;99633.38;5026994;28;20051;-81
2022/04/04 13:14:58;;;;;;;12.85;7.50;;;;;;;5.52;50.75;99629.34;4995793;28;20053;-81
2022/04/04 13:17:37;;;;;;;13.45;7.82;;;;;;;5.43;51.18;99626.41;5006069;28;20492;-83
2022/04/04 13:20:15;;;;;;;10.82;7.95;;;;;;;5.49;50.87;99604.06;5023124;28;20061;-85
2022/04/04 13:22:43;;;;;;;11.20;7.32;;;;;;;5.63;50.88;99601.28;5035499;28;20086;-83
2022/04/04 13:25:12;;;;;;;11.10;7.18;;;;;;;5.80;49.28;99594.81;5024427;28;20052;-83
2022/04/04 13:27:40;;;;;;;10.13;6.45;;;;;;;5.73;50.04;99590.09;5031504;28;20095;-83
2022/04/04 13:30:08;;;;;;;9.88;6.88;;;;;;;5.76;49.74;99588.06;5039668;28;20102;-83
2022/04/04 13:32:37;;;;;;;12.52;6.57;;;;;;;5.76;49.15;99597.78;5038253;28;20496;-83
2022/04/04 13:35:05;;;;;;;8.68;6.63;;;;;;;5.79;49.29;99585.22;5038830;28;20041;-83
2022/04/04 13:37:31;;;;;;;11.05;6.30;;;;;;;5.85;49.37;99583.91;5038347;28;20060;-83
2022/04/04 13:39:59;;;;;;;8.43;6.03;;;;;;;5.84;49.26;99571.72;5039955;28;20044;-83
2022/04/04 13:42:26;;;;;;;9.48;6.70;;;;;;;6.01;48.52;99578.41;5035393;28;20056;-83
2022/04/04 13:44:53;;;;;;;10.15;6.05;;;;;;;6.00;48.21;99558.28;5022453;28;20052;-83
2022/04/04 13:47:20;;;;;;;10.45;6.60;;;;;;;6.00;47.88;99561.75;5022845;28;20508;-83
2022/04/04 13:49:48;;;;;;;10.18;5.97;;;;;;;6.05;47.74;99554.34;5012117;28;20049;-82
2022/04/04 13:52:15;;;;;;;14.05;6.82;;;;;;;6.12;46.94;99565.28;5043336;28;20047;-83
2022/04/04 13:54:42;;;;;;;10.25;6.00;;;;;;;6.06;47.29;99557.84;5035821;28;20591;-83
2022/04/04 13:57:10;;;;;;;10.05;6.55;;;;;;;6.04;47.19;99573.75;5036607;28;20751;-87
2022/04/04 13:59:37;;;;;;;9.13;6.15;;;;;;;6.11;47.23;99578.56;5042471;28;20049;-88
2022/04/04 14:02:05;;;;;;;10.10;6.72;;;;;;;6.12;46.85;99562.63;5020689;28;20036;-88
2022/04/04 14:04:36;;;;;;;8.70;6.90;;;;;;;6.09;47.06;99566.34;5039779;28;20048;-88
2022/04/04 14:07:05;;;;;;;8.85;6.47;;;;;;;6.14;46.88;99562.53;5016047;28;20124;-87
2022/04/04 14:09:33;;;;;;;8.75;6.50;;;;;;;6.07;46.75;99556.88;5010478;28;20094;-89
2022/04/04 14:12:03;;;;;;;9.23;6.78;;;;;;;6.13;46.94;99550.28;5023853;28;21000;-90
2022/04/04 14:19:00;;;;;;;10.48;7.07;;;;;;;6.21;46.40;99540.88;5028732;28;20726;-91
2022/04/04 14:21:27;;;;;;;8.55;6.95;;;;;;;6.21;46.39;99537.41;5008743;28;20045;-92
2022/04/04 14:23:53;;;;;;;8.95;6.65;;;;;;;6.24;46.58;99542.44;4994220;28;20048;-84
2022/04/04 14:26:21;;;;;;;9.85;7.10;;;;;;;6.23;46.59;99533.69;5026239;28;20132;-85
2022/04/04 14:28:47;;;;;;;10.40;7.50;;;;;;;6.28;46.53;99521.00;5048631;28;20040;-86
2022/04/04 14:31:14;;;;;;;9.13;6.65;;;;;;;6.25;46.49;99521.22;5006189;28;20128;-85
2022/04/04 14:33:43;;;;;;;11.10;7.43;;;;;;;6.32;46.23;99523.41;5021111;28;20503;-85
2022/04/04 14:36:10;;;;;;;10.30;7.53;;;;;;;6.34;46.44;99508.31;5027973;28;20140;-85
2022/04/04 14:38:37;;;;;;;9.48;7.15;;;;;;;6.30;46.59;99521.69;5031410;28;20037;-85
2022/04/04 14:41:08;;;;;;;10.48;7.53;;;;;;;6.32;46.43;99511.06;5031239;28;20544;-85
2022/04/04 14:43:36;;;;;;;12.18;7.60;;;;;;;6.37;46.74;99523.91;5029469;28;20044;-85
2022/04/04 14:46:03;;;;;;;9.93;7.70;;;;;;;6.41;46.37;99507.72;5049753;28;20480;-85
2022/04/04 14:48:31;;;;;;;9.55;6.95;;;;;;;6.40;46.55;99507.84;5038717;28;20044;-84
2022/04/04 14:50:58;;;;;;;9.18;6.85;;;;;;;6.34;46.88;99513.59;5042993;28;20047;-91
2022/04/04 14:53:25;;;;;;;7.50;6.75;;;;;;;6.39;46.98;99507.00;5038739;28;20040;-84
2022/04/04 14:56:07;;;;;;;11.25;6.80;;;;;;;6.41;46.93;99502.44;5026752;28;20120;-84
2022/04/04 14:58:34;;;;;;;10.88;7.25;;;;;;;6.49;46.60;99500.06;5018292;28;20127;-84
2022/04/04 15:01:01;;;;;;;10.13;6.80;;;;;;;6.45;46.75;99498.59;5023418;28;20063;-84
2022/04/04 15:03:28;;;;;;;13.10;7.40;;;;;;;6.50;46.82;99500.88;5023506;28;20053;-83
2022/04/04 15:05:55;;;;;;;11.05;6.75;;;;;;;6.52;47.04;99496.34;5009452;28;20041;-83
2022/04/04 15:08:29;;;;;;;34.38;20.55;;;;;;;6.67;51.68;99489.03;5033411;28;20388;-83
2022/04/04 15:10:56;;;;;;;9.82;7.50;;;;;;;6.70;48.37;99481.72;5037290;28;20073;-82
2022/04/04 15:13:23;;;;;;;9.73;6.80;;;;;;;6.72;47.85;99477.16;5035414;28;20400;-82
2022/04/04 15:15:51;;;;;;;12.05;6.82;;;;;;;6.74;47.40;99488.44;5026963;28;20047;-81
2022/04/04 15:18:38;;;;;;;14.93;7.35;;;;;;;6.78;46.99;99465.28;4990734;28;20079;-82
2022/04/04 15:21:05;;;;;;;8.95;7.05;;;;;;;6.76;47.28;99467.19;5032915;28;20399;-83
2022/04/04 15:23:32;;;;;;;11.50;7.10;;;;;;;6.77;47.04;99475.94;5032731;28;20052;-82
2022/04/04 15:26:19;;;;;;;8.73;6.80;;;;;;;6.76;47.12;99476.91;5007756;28;20052;-82
2022/04/04 15:28:48;;;;;;;11.38;7.63;;;;;;;6.81;46.41;99464.19;5035925;28;20052;-81
2022/04/04 15:31:15;;;;;;;8.40;6.70;;;;;;;6.77;46.94;99460.13;5039233;28;20040;-81
2022/04/04 15:33:43;;;;;;;12.75;7.35;;;;;;;7.04;45.38;99463.22;5026112;28;20496;-82
2022/04/04 15:36:22;;;;;;;10.90;7.43;;;;;;;6.84;46.31;99459.50;5026866;28;20048;-82
2022/04/04 15:38:50;;;;;;;10.10;6.65;;;;;;;6.79;46.88;99448.47;4998507;28;20119;-82
2022/04/04 15:41:17;;;;;;;12.55;7.20;;;;;;;6.79;46.01;99445.00;5014855;28;20052;-81
2022/04/04 15:43:46;;;;;;;10.52;6.95;;;;;;;6.84;46.49;99437.56;5009125;28;20072;-81
2022/04/04 15:46:13;;;;;;;11.38;7.20;;;;;;;6.84;46.77;99446.31;5028485;28;20668;-81
2022/04/04 15:48:41;;;;;;;10.15;7.00;;;;;;;6.88;46.76;99437.22;5043025;28;20121;-81
2022/04/04 15:51:09;;;;;;;10.38;7.35;;;;;;;6.95;46.69;99441.03;5035933;28;20052;-81
2022/04/04 15:53:37;;;;;;;9.70;7.43;;;;;;;6.94;46.56;99446.44;5024570;28;20051;-81
2022/04/04 15:56:05;;;;;;;11.18;8.32;;;;;;;7.00;46.65;99424.00;5014960;28;20037;-81
2022/04/04 15:58:32;;;;;;;7.57;6.60;;;;;;;7.00;46.38;99434.56;5031592;28;20041;-81
2022/04/04 16:01:00;;;;;;;9.55;7.28;;;;;;;7.00;47.13;99445.97;5020100;28;20037;-83
2022/04/04 16:03:27;;;;;;;16.13;7.80;;;;;;;6.98;47.13;99437.31;5032143;28;20107;-85
2022/04/04 16:05:54;;;;;;;10.80;7.45;;;;;;;6.99;47.21;99440.78;5030409;28;20041;-85
2022/04/04 16:08:21;;;;;;;10.27;7.03;;;;;;;7.04;46.91;99428.06;5023724;28;20049;-85
2022/04/04 16:10:48;;;;;;;10.00;7.25;;;;;;;7.07;46.75;99444.50;5027712;28;20041;-86
2022/04/04 16:13:15;;;;;;;11.73;7.45;;;;;;;7.08;47.05;99434.78;5019740;28;20049;-87
2022/04/04 16:15:43;;;;;;;11.18;7.35;;;;;;;7.17;46.75;99426.09;5050756;28;20041;-86
2022/04/04 16:18:10;;;;;;;9.07;7.10;;;;;;;7.13;46.97;99444.00;5055359;28;20072;-86
2022/04/04 16:20:37;;;;;;;9.85;6.43;;;;;;;7.11;47.07;99443.28;5023298;28;20032;-87
2022/04/04 16:23:04;;;;;;;9.85;7.03;;;;;;;7.14;46.87;99443.03;5020459;28;20053;-86
2022/04/04 16:25:31;;;;;;;11.52;7.45;;;;;;;7.15;47.23;99441.25;5040269;28;20450;-81
2022/04/04 16:27:57;;;;;;;8.93;7.07;;;;;;;7.24;47.01;99431.75;5036599;28;20094;-81
2022/04/04 16:30:26;;;;;;;9.35;7.15;;;;;;;7.18;47.31;99426.00;5026940;28;20129;-82
2022/04/04 16:32:53;;;;;;;11.40;7.32;;;;;;;7.21;47.49;99448.66;5026321;28;20044;-81
2022/04/04 16:35:20;;;;;;;8.85;6.57;;;;;;;7.22;47.15;99446.88;5061891;28;20059;-81
2022/04/04 16:37:50;;;;;;;10.32;7.47;;;;;;;7.23;47.06;99453.84;5041747;28;20131;-81
2022/04/04 16:40:17;;;;;;;13.65;7.00;;;;;;;7.19;47.70;99432.09;5027509;28;20032;-81
2022/04/04 16:42:43;;;;;;;12.27;7.60;;;;;;;7.21;47.29;99437.28;5022973;28;20041;-81
2022/04/04 16:45:10;;;;;;;9.60;7.07;;;;;;;7.22;47.41;99450.34;5018880;28;20384;-81
2022/04/04 16:47:37;;;;;;;16.30;8.18;;;;;;;7.25;47.43;99444.84;5036065;28;20381;-81
2022/04/04 16:50:05;;;;;;;10.07;7.40;;;;;;;7.24;47.51;99456.34;5030229;28;20447;-81
2022/04/04 16:52:34;;;;;;;10.30;6.90;;;;;;;7.23;47.68;99465.25;5032070;28;20044;-81
2022/04/04 16:55:01;;;;;;;10.25;6.72;;;;;;;7.29;47.47;99456.81;5032712;28;20472;-81
2022/04/04 16:57:28;;;;;;;11.05;7.10;;;;;;;7.30;47.87;99455.00;5021878;28;20165;-82
2022/04/04 16:59:54;;;;;;;6.90;5.78;;;;;;;7.28;47.73;99454.31;5044173;28;20052;-83
2022/04/04 17:02:21;;;;;;;10.20;6.40;;;;;;;7.31;48.13;99464.63;5024198;28;20041;-82
2022/04/04 17:04:48;;;;;;;9.10;7.03;;;;;;;7.32;47.82;99434.59;5041682;28;20061;-82
2022/04/04 17:07:14;;;;;;;10.05;7.13;;;;;;;7.35;48.02;99432.56;5007501;28;20387;-83
2022/04/04 17:09:41;;;;;;;10.38;6.47;;;;;;;7.37;48.35;99437.69;5039305;28;20676;-82
2022/04/04 17:12:08;;;;;;;10.85;7.43;;;;;;;7.36;48.19;99436.03;5039097;28;20048;-81
2022/04/04 17:14:36;;;;;;;9.30;6.60;;;;;;;7.37;48.01;99437.69;5028533;28;20051;-82
2022/04/04 17:17:03;;;;;;;11.52;7.38;;;;;;;7.45;47.67;99442.34;5044464;28;20436;-82
2022/04/04 17:19:30;;;;;;;8.95;6.68;;;;;;;7.38;47.88;99436.75;5030847;28;20460;-91
2022/04/04 17:21:56;;;;;;;12.43;6.55;;;;;;;7.43;47.84;99450.41;5023978;28;20045;-90
2022/04/04 17:24:23;;;;;;;10.68;6.80;;;;;;;7.41;47.94;99440.94;5036320;28;20047;-91
2022/04/04 17:26:51;;;;;;;9.80;6.43;;;;;;;7.40;48.15;99453.28;5047664;28;20376;-89
2022/04/04 17:29:26;;;;;;;10.15;6.78;;;;;;;7.42;48.35;99446.09;5015143;28;20045;-92
2022/04/04 17:31:55;;;;;;;11.50;7.57;;;;;;;7.45;48.12;99447.63;5010203;28;20044;-86
2022/04/04 17:34:22;;;;;;;11.07;6.82;;;;;;;7.43;48.47;99454.84;5038191;28;20036;-87
2022/04/04 17:36:48;;;;;;;22.65;10.38;;;;;;;7.41;48.62;99449.69;5045035;28;20095;-89
2022/04/04 17:39:21;;;;;;;11.48;7.28;;;;;;;7.43;48.91;99458.34;5028363;28;20082;-88
2022/04/04 17:41:48;;;;;;;11.02;7.50;;;;;;;7.48;49.12;99450.88;5029624;28;20139;-88
2022/04/04 17:44:16;;;;;;;10.38;7.05;;;;;;;7.43;49.28;99452.19;5013297;28;20169;-89
2022/04/04 17:46:43;;;;;;;11.20;7.40;;;;;;;7.42;49.39;99446.09;5013918;28;20045;-87
2022/04/04 17:49:14;;;;;;;9.25;7.53;;;;;;;7.42;49.68;99447.91;5028188;28;20045;-87
2022/04/04 17:51:41;;;;;;;11.55;7.72;;;;;;;7.45;49.69;99450.28;5056866;28;20110;-85
2022/04/04 17:54:14;;;;;;;14.52;8.70;;;;;;;7.46;49.63;99446.69;5005181;28;20060;-88
2022/04/04 17:56:47;;;;;;;10.52;8.10;;;;;;;7.46;49.83;99451.97;5008064;28;20174;-87
2022/04/04 17:59:13;;;;;;;18.50;9.68;;;;;;;7.44;50.39;99459.19;5013533;28;20160;-88
2022/04/04 18:01:46;;;;;;;13.00;8.43;;;;;;;7.42;50.34;99461.94;5030992;28;20052;-86
2022/04/04 18:04:13;;;;;;;16.83;10.25;;;;;;;7.45;50.67;99460.84;5036521;28;20049;-84
2022/04/04 18:06:42;;;;;;;12.27;9.20;;;;;;;7.45;51.24;99456.38;5033602;28;20056;-83
2022/04/04 18:09:09;;;;;;;13.75;9.13;;;;;;;7.41;51.45;99468.19;5036663;28;20040;-84
2022/04/04 18:11:36;;;;;;;13.95;9.30;;;;;;;7.38;51.92;99469.28;5007065;28;21146;-83
2022/04/04 18:14:04;;;;;;;13.20;8.70;;;;;;;7.42;52.25;99474.31;5002065;28;20052;-86
2022/04/04 18:16:33;;;;;;;16.17;10.18;;;;;;;7.41;52.27;99470.84;5010686;28;20120;-82
2022/04/04 18:19:04;;;;;;;19.48;10.75;;;;;;;7.49;53.57;99478.97;5022927;28;20072;-86
2022/04/04 18:21:32;;;;;;;13.02;9.68;;;;;;;7.43;53.20;99470.69;5009176;28;20071;-87
2022/04/04 18:24:00;;;;;;;12.70;9.73;;;;;;;7.39;53.37;99465.66;5010589;28;20063;-86
2022/04/04 18:26:29;;;;;;;16.58;11.98;;;;;;;7.41;53.36;99467.38;5046056;28;20060;-86
2022/04/04 18:28:56;;;;;;;15.45;10.27;;;;;;;7.41;53.57;99470.00;5039851;28;20123;-86
2022/04/04 18:31:24;;;;;;;14.85;9.90;;;;;;;7.44;53.97;99453.91;5040803;28;20407;-87
2022/04/04 18:33:53;;;;;;;18.52;10.98;;;;;;;7.39;53.83;99463.03;5006931;28;20041;-89
2022/04/04 18:36:27;;;;;;;18.45;10.88;;;;;;;7.38;54.00;99468.44;5029190;28;20417;-85
2022/04/04 18:38:59;;;;;;;13.00;9.30;;;;;;;7.42;54.22;99474.31;5041856;28;20041;-86
2022/04/04 18:41:55;;;;;;;12.30;8.93;;;;;;;7.35;54.61;99458.09;5025229;28;20044;-86
2022/04/04 18:44:22;;;;;;;13.38;9.48;;;;;;;7.47;54.28;99465.03;4985902;28;20050;-84
2022/04/04 18:46:48;;;;;;;14.57;9.15;;;;;;;7.48;54.34;99465.88;5041480;28;20041;-86
2022/04/04 18:49:16;;;;;;;21.13;11.68;;;;;;;7.49;54.38;99460.47;5030871;28;20045;-85
2022/04/04 18:51:43;;;;;;;18.55;10.70;;;;;;;7.48;54.88;99457.94;5020280;28;20051;-84
2022/04/04 18:54:11;;;;;;;15.65;9.60;;;;;;;7.49;54.40;99462.28;5004066;28;20045;-82
2022/04/04 18:56:38;;;;;;;19.10;10.75;;;;;;;7.52;54.58;99459.38;5017033;28;20051;-82
2022/04/04 18:59:05;;;;;;;14.70;9.02;;;;;;;7.52;54.33;99447.00;5036671;28;20044;-82
2022/04/04 19:01:32;;;;;;;15.30;9.50;;;;;;;7.58;54.41;99465.03;5041650;28;20127;-86
2022/04/04 19:04:01;;;;;;;15.10;9.48;;;;;;;7.50;54.95;99459.50;5026521;28;20044;-84
2022/04/04 19:06:30;;;;;;;16.83;10.02;;;;;;;7.53;54.17;99459.28;5011382;28;20393;-83
2022/04/04 19:09:51;;;;;;;15.88;9.52;;;;;;;7.42;54.29;99454.00;5034545;28;20044;-84
2022/04/04 19:12:18;;;;;;;14.90;9.50;;;;;;;7.53;53.97;99463.69;4971780;28;20041;-84
2022/04/04 19:15:11;;;;;;;15.45;10.05;;;;;;;7.44;54.33;99454.72;5002616;28;20048;-84
2022/04/04 19:17:41;;;;;;;14.73;9.50;;;;;;;7.55;53.76;99462.59;4995676;28;20128;-84
2022/04/04 19:20:10;;;;;;;18.55;10.30;;;;;;;7.58;53.65;99457.09;5049246;28;20982;-84
2022/04/04 19:22:43;;;;;;;16.52;9.98;;;;;;;7.57;53.63;99458.03;5054394;28;20466;-84
2022/04/04 19:25:12;;;;;;;16.48;9.50;;;;;;;7.56;53.88;99466.94;5024609;28;20067;-83
2022/04/04 19:27:40;;;;;;;15.38;9.98;;;;;;;7.61;53.70;99469.22;5024745;28;20075;-84
2022/04/04 19:30:11;;;;;;;18.92;10.35;;;;;;;7.61;53.52;99475.34;5030018;28;20040;-83
2022/04/04 19:32:38;;;;;;;15.77;10.27;;;;;;;7.61;53.78;99475.34;5029547;28;20492;-81
2022/04/04 19:35:10;;;;;;;20.25;11.45;;;;;;;7.64;53.67;99466.31;5035837;28;20476;-83
2022/04/04 19:37:39;;;;;;;16.52;10.27;;;;;;;7.64;53.43;99471.59;5013689;28;20059;-83
2022/04/04 19:40:08;;;;;;;15.07;9.93;;;;;;;7.63;53.48;99464.63;5041266;28;20088;-83
2022/04/04 19:42:35;;;;;;;15.85;10.20;;;;;;;7.66;53.68;99476.75;5036274;28;20048;-83
2022/04/04 19:45:04;;;;;;;19.40;10.52;;;;;;;7.64;53.55;99471.59;5025736;28;20037;-83
2022/04/04 19:47:34;;;;;;;21.55;10.80;;;;;;;7.68;53.38;99474.81;5020511;28;20439;-83
2022/04/04 19:50:04;;;;;;;19.25;10.02;;;;;;;7.69;53.47;99469.41;5040880;28;20041;-87
2022/04/04 19:52:31;;;;;;;19.90;10.48;;;;;;;7.67;53.73;99470.50;5019597;28;20049;-88
2022/04/04 19:54:58;;;;;;;18.35;11.07;;;;;;;7.65;53.79;99460.03;5032382;28;20041;-88
2022/04/04 19:57:25;;;;;;;15.13;10.52;;;;;;;7.67;53.98;99457.28;5024970;28;20049;-88
2022/04/04 19:59:54;;;;;;;16.50;10.32;;;;;;;7.67;53.88;99460.78;5028067;28;20046;-84